Aérodrome :
LOGIN :

S'inscrire | Disclaimer

   EN    FR    IT 

 










Légende :    VFR   VFR Marginal   IFR   IFR Intensif   IFR Très Intensif
Visi : 
Plafond : 
>= 8 km
>= 3000ft
5 à 8 km
1000 à 3000 ft
1500m à 5 km
500 à 1000 ft
800 à 1500m
200 à 500 ft
< 800m
< 200 ft
Symboles :   Orages  Brouillard  Fortes neiges  Fortes précipitations  Vent > 20 kt
SIGMETs :   Divers  Orages  Givrage  Turbulence  Onde Orograph.  Cendres Volcan.






- Altitude de l'aérodrome : 309 ft
- Code IATA : FNI


LFTW - Nîmes Garons

DERNIER METAR :
  • 061730Z AUTO 21009KT 170V250 CAVOK 21/14 Q1006 NOSIG

METARs EXPIRÉS :
  • 061700Z AUTO 21009KT 180V250 CAVOK 22/14 Q1006 NOSIG
  • 061630Z AUTO 19014KT CAVOK 24/15 Q1006 BECMG 27013KT
  • 061600Z AUTO 19014KT 160V230 CAVOK 25/14 Q1006 NOSIG
  • 061530Z AUTO 19012KT 160V220 CAVOK 25/14 Q1006 NOSIG
  • 061500Z AUTO 18012KT 150V220 CAVOK 25/14 Q1007 NOSIG

TAF TAF LFTW
Valide du 06 à 15h jusqu'au 07 à 15h UTC


061400Z 0615/0715 27013KT 9999 FEW040
BECMG 0620/0623 SCT015 SCT030CB BKN090
PROB40
TEMPO 0700/0703 3000 TSRA BKN015 BKN030CB BKN040
BECMG 0708/0709 27005KT NSC



MET'MAP, la Météo Aéronautique d'un coup d'oeil ! - Copyright ORBIFLY Décembre 2007 - Disclaimer

ORBIFLY MET'MAP TEAM :

Programmation & Développement : Alexandra Zaïnal
Sur une idée originale de : Baudouin d'Aumeries
Assistance à la programmation : Marc-Olivier Méhu
Soutien technique & logistique : Manuel Goepfert

Contact : metmap@orbifly.com




SOURCES & CREDITS :

   NOAA